createdAt,value
2023-05-07T16:16:19.339Z,15.06
2023-05-07T16:19:06.782Z,15.01
2023-05-07T16:21:52.993Z,14.98
2023-05-07T16:24:38.233Z,15.02
2023-05-07T16:27:23.507Z,15.14
2023-05-07T16:30:09.035Z,15.28
2023-05-07T16:32:54.405Z,15.54
2023-05-07T16:35:40.106Z,15.74
2023-05-07T16:38:26.859Z,15.87
2023-05-07T16:41:13.267Z,15.88
2023-05-07T16:43:58.621Z,15.85
2023-05-07T16:46:44.549Z,15.93
2023-05-07T16:49:29.828Z,15.77
2023-05-07T16:52:15.208Z,15.79
2023-05-07T16:55:01.427Z,15.79
2023-05-07T16:57:47.132Z,15.63
2023-05-07T17:00:46.322Z,15.36
2023-05-07T17:03:35.296Z,15.22
2023-05-07T17:06:23.207Z,15.08
2023-05-07T17:09:09.334Z,14.88
2023-05-07T17:11:54.838Z,14.75
2023-05-07T17:14:40.288Z,14.69
2023-05-07T17:17:25.556Z,14.61
2023-05-07T17:20:11.973Z,14.56
2023-05-07T17:22:57.285Z,14.63
2023-05-07T17:25:45.512Z,14.54
2023-05-07T17:28:30.620Z,14.49
2023-05-07T17:31:16.096Z,14.43
2023-05-07T17:34:01.392Z,14.34
2023-05-07T17:36:46.553Z,14.38
2023-05-07T17:39:31.802Z,14.35
2023-05-07T17:42:17.285Z,14.24
2023-05-07T17:45:02.382Z,14.25
2023-05-07T17:47:48.035Z,14.21
2023-05-07T17:50:33.354Z,14.16
2023-05-07T17:53:18.544Z,14.14
2023-05-07T17:56:03.750Z,14.09
2023-05-07T17:58:58.606Z,14.07
2023-05-07T18:01:45.236Z,14.03
2023-05-07T18:04:30.806Z,14.00
2023-05-07T18:07:15.826Z,13.92
2023-05-07T18:10:01.559Z,13.92
2023-05-07T18:12:46.721Z,13.85
2023-05-07T18:15:32.085Z,13.71
2023-05-07T18:18:18.627Z,13.63
2023-05-07T18:21:04.182Z,13.56
2023-05-07T18:23:49.536Z,13.50
2023-05-07T18:26:34.456Z,13.43
2023-05-07T18:29:20.113Z,13.37
2023-05-07T18:32:05.290Z,13.34
2023-05-07T18:34:50.392Z,13.34
2023-05-07T18:37:35.687Z,13.36
2023-05-07T18:40:21.027Z,13.37
2023-05-07T18:43:07.078Z,13.35
2023-05-07T18:45:52.661Z,13.35
2023-05-07T18:48:37.966Z,13.36
2023-05-07T18:51:23.529Z,13.34
2023-05-07T18:54:08.653Z,13.33
2023-05-07T18:56:54.180Z,13.30
2023-05-07T18:59:39.441Z,13.26
2023-05-07T19:02:24.716Z,13.22
2023-05-07T19:05:09.921Z,13.16
2023-05-07T19:07:55.313Z,13.14
2023-05-07T19:10:40.953Z,13.05
2023-05-07T19:13:27.396Z,12.99
2023-05-07T19:16:13.890Z,12.93
2023-05-07T19:18:58.921Z,12.87
2023-05-07T19:21:44.321Z,12.86
2023-05-07T19:24:29.547Z,12.83
2023-05-07T19:27:15.087Z,12.80
2023-05-07T19:30:00.426Z,12.75
2023-05-07T19:32:45.985Z,12.66
2023-05-07T19:35:31.378Z,12.63
2023-05-07T19:38:16.922Z,12.57
2023-05-07T19:41:02.631Z,12.52
2023-05-07T19:43:48.270Z,12.51
2023-05-07T19:46:33.635Z,12.48
2023-05-07T19:49:18.953Z,12.42
2023-05-07T19:52:04.687Z,12.44
2023-05-07T19:54:49.909Z,12.40
2023-05-07T19:57:35.195Z,12.33
2023-05-07T20:00:21.882Z,12.27
2023-05-07T20:03:07.480Z,12.20
2023-05-07T20:05:52.833Z,12.19
2023-05-07T20:08:38.472Z,12.15
2023-05-07T20:11:23.685Z,12.12
2023-05-07T20:14:10.027Z,12.10
2023-05-07T20:16:55.407Z,12.07
2023-05-07T20:19:40.502Z,12.05
2023-05-07T20:22:29.507Z,12.03
2023-05-07T20:25:14.972Z,12.02
2023-05-07T20:28:00.042Z,12.01
2023-05-07T20:30:45.233Z,11.97
2023-05-07T20:33:30.980Z,11.90
2023-05-07T20:36:16.171Z,11.84
2023-05-07T20:39:01.736Z,11.77
2023-05-07T20:41:47.279Z,11.72
2023-05-07T20:44:33.805Z,11.66
2023-05-07T20:47:19.435Z,11.64
2023-05-07T20:50:05.413Z,11.59
2023-05-07T20:52:50.646Z,11.54
2023-05-07T20:55:35.891Z,11.45
2023-05-07T20:58:21.035Z,11.41
2023-05-07T21:01:06.833Z,11.36
2023-05-07T21:03:54.117Z,11.34
2023-05-07T21:06:40.296Z,11.31
2023-05-07T21:09:26.299Z,11.26
2023-05-07T21:12:11.587Z,11.19
2023-05-07T21:14:57.302Z,11.12
2023-05-07T21:17:42.892Z,11.09
2023-05-07T21:20:29.583Z,11.07
2023-05-07T21:23:14.527Z,11.03
2023-05-07T21:25:59.943Z,10.98
2023-05-07T21:28:45.472Z,10.94
2023-05-07T21:31:30.933Z,10.92
2023-05-07T21:34:15.988Z,10.91
2023-05-07T21:37:01.350Z,10.90
2023-05-07T21:39:46.437Z,10.85
2023-05-07T21:42:32.098Z,10.83
2023-05-07T21:45:17.379Z,10.81
2023-05-07T21:48:02.773Z,10.79
2023-05-07T21:50:48.981Z,10.70
2023-05-07T21:53:34.846Z,10.68
2023-05-07T21:56:20.141Z,10.62
2023-05-07T21:59:05.675Z,10.59
2023-05-07T22:01:51.174Z,10.57
2023-05-07T22:04:36.585Z,10.51
2023-05-07T22:07:21.787Z,10.51
2023-05-07T22:10:07.777Z,10.44
2023-05-07T22:12:53.351Z,10.41
2023-05-07T22:15:53.240Z,10.38
2023-05-07T22:18:43.738Z,10.34
2023-05-07T22:21:28.986Z,10.31
2023-05-07T22:24:14.259Z,10.26
2023-05-07T22:26:59.959Z,10.22
2023-05-07T22:29:45.657Z,10.18
2023-05-07T22:32:30.767Z,10.16
2023-05-07T22:35:16.397Z,10.13
2023-05-07T22:38:01.711Z,10.08
2023-05-07T22:40:47.199Z,10.08
2023-05-07T22:43:32.250Z,10.02
2023-05-07T22:46:17.798Z,9.93
2023-05-07T22:49:03.269Z,9.90
2023-05-07T22:51:48.502Z,9.93
2023-05-07T22:54:34.013Z,9.89
2023-05-07T22:57:19.089Z,9.83
2023-05-07T23:00:05.755Z,9.77
2023-05-07T23:02:51.500Z,9.74
2023-05-07T23:05:36.436Z,9.74
2023-05-07T23:08:21.901Z,9.70
2023-05-07T23:11:07.567Z,9.68
2023-05-07T23:13:52.793Z,9.67
2023-05-07T23:16:37.967Z,9.67
2023-05-07T23:19:23.628Z,9.62
2023-05-07T23:22:10.089Z,9.59
2023-05-07T23:24:55.170Z,9.57
2023-05-07T23:27:40.618Z,9.53
2023-05-07T23:30:26.021Z,9.53
2023-05-07T23:33:11.221Z,9.53
2023-05-07T23:36:04.694Z,9.49
2023-05-07T23:38:49.933Z,9.49
2023-05-07T23:41:35.755Z,9.47
2023-05-07T23:44:21.224Z,9.41
2023-05-07T23:47:06.686Z,9.35
2023-05-07T23:49:52.219Z,9.31
2023-05-07T23:52:37.513Z,9.32
2023-05-07T23:55:22.664Z,9.27
2023-05-07T23:58:08.186Z,9.22
